sensor_id;sensor_type;location;lat;lon;timestamp;P1;durP1;ratioP1;P2;durP2;ratioP2
64242;SDS011;50573;51.512;5.386;2022-09-06T00:09:10;10.05;;;8.07;;
64242;SDS011;50573;51.512;5.386;2022-09-06T00:19:13;10.25;;;8.48;;
64242;SDS011;50573;51.512;5.386;2022-09-06T00:29:18;14.18;;;10.10;;
64242;SDS011;50573;51.512;5.386;2022-09-06T00:39:21;13.88;;;10.23;;
64242;SDS011;50573;51.512;5.386;2022-09-06T00:49:27;10.93;;;8.80;;
64242;SDS011;50573;51.512;5.386;2022-09-06T00:59:33;10.98;;;8.88;;
64242;SDS011;50573;51.512;5.386;2022-09-06T01:09:45;13.27;;;9.63;;
64242;SDS011;50573;51.512;5.386;2022-09-06T01:20:16;16.38;;;10.10;;
64242;SDS011;50573;51.512;5.386;2022-09-06T01:30:41;15.63;;;12.68;;
64242;SDS011;50573;51.512;5.386;2022-09-06T01:40:49;13.52;;;11.45;;
64242;SDS011;50573;51.512;5.386;2022-09-06T01:50:56;12.00;;;9.20;;
64242;SDS011;50573;51.512;5.386;2022-09-06T02:11:16;17.60;;;10.77;;
64242;SDS011;50573;51.512;5.386;2022-09-06T02:21:21;9.63;;;7.47;;
64242;SDS011;50573;51.512;5.386;2022-09-06T02:31:32;11.20;;;8.75;;
64242;SDS011;50573;51.512;5.386;2022-09-06T02:41:39;19.73;;;10.95;;
64242;SDS011;50573;51.512;5.386;2022-09-06T02:51:46;19.75;;;11.73;;
64242;SDS011;50573;51.512;5.386;2022-09-06T03:01:49;18.42;;;13.70;;
64242;SDS011;50573;51.512;5.386;2022-09-06T03:11:53;16.38;;;13.15;;
64242;SDS011;50573;51.512;5.386;2022-09-06T03:21:56;11.90;;;10.25;;
64242;SDS011;50573;51.512;5.386;2022-09-06T03:32:01;11.95;;;9.80;;
64242;SDS011;50573;51.512;5.386;2022-09-06T03:42:04;20.02;;;10.68;;
64242;SDS011;50573;51.512;5.386;2022-09-06T03:52:09;15.38;;;12.45;;
64242;SDS011;50573;51.512;5.386;2022-09-06T04:02:12;13.98;;;10.25;;
64242;SDS011;50573;51.512;5.386;2022-09-06T04:12:16;15.80;;;11.38;;
64242;SDS011;50573;51.512;5.386;2022-09-06T04:22:19;15.35;;;13.18;;
64242;SDS011;50573;51.512;5.386;2022-09-06T04:32:24;23.20;;;18.58;;
64242;SDS011;50573;51.512;5.386;2022-09-06T04:42:27;18.83;;;14.95;;
64242;SDS011;50573;51.512;5.386;2022-09-06T04:52:31;29.42;;;18.88;;
64242;SDS011;50573;51.512;5.386;2022-09-06T05:02:34;23.17;;;19.30;;
64242;SDS011;50573;51.512;5.386;2022-09-06T05:12:39;21.73;;;18.38;;
64242;SDS011;50573;51.512;5.386;2022-09-06T05:22:50;21.83;;;16.95;;
64242;SDS011;50573;51.512;5.386;2022-09-06T05:32:56;23.58;;;19.23;;
64242;SDS011;50573;51.512;5.386;2022-09-06T05:42:59;20.42;;;17.08;;
64242;SDS011;50573;51.512;5.386;2022-09-06T05:53:03;18.60;;;13.95;;
64242;SDS011;50573;51.512;5.386;2022-09-06T06:03:06;22.30;;;12.60;;
64242;SDS011;50573;51.512;5.386;2022-09-06T06:13:11;19.50;;;12.80;;
64242;SDS011;50573;51.512;5.386;2022-09-06T06:23:14;20.00;;;11.20;;
64242;SDS011;50573;51.512;5.386;2022-09-06T06:33:18;14.75;;;10.52;;
64242;SDS011;50573;51.512;5.386;2022-09-06T06:43:21;13.40;;;9.73;;
64242;SDS011;50573;51.512;5.386;2022-09-06T06:53:26;13.90;;;8.63;;
64242;SDS011;50573;51.512;5.386;2022-09-06T07:03:29;10.98;;;8.07;;
64242;SDS011;50573;51.512;5.386;2022-09-06T07:13:34;9.77;;;5.63;;
64242;SDS011;50573;51.512;5.386;2022-09-06T07:23:38;8.50;;;5.22;;
64242;SDS011;50573;51.512;5.386;2022-09-06T07:34:03;9.25;;;5.20;;
64242;SDS011;50573;51.512;5.386;2022-09-06T07:44:06;8.82;;;3.83;;
64242;SDS011;50573;51.512;5.386;2022-09-06T07:54:11;4.93;;;3.28;;
64242;SDS011;50573;51.512;5.386;2022-09-06T08:04:31;3.50;;;3.20;;
64242;SDS011;50573;51.512;5.386;2022-09-06T08:14:35;7.22;;;3.08;;
64242;SDS011;50573;51.512;5.386;2022-09-06T08:24:39;5.47;;;2.78;;
64242;SDS011;50573;51.512;5.386;2022-09-06T08:34:43;4.37;;;2.87;;
64242;SDS011;50573;51.512;5.386;2022-09-06T08:44:47;6.07;;;3.00;;
64242;SDS011;50573;51.512;5.386;2022-09-06T08:55:03;6.30;;;2.97;;
64242;SDS011;50573;51.512;5.386;2022-09-06T09:05:20;5.90;;;2.63;;
64242;SDS011;50573;51.512;5.386;2022-09-06T09:15:27;5.95;;;2.95;;
64242;SDS011;50573;51.512;5.386;2022-09-06T09:25:31;3.67;;;2.67;;
64242;SDS011;50573;51.512;5.386;2022-09-06T09:35:38;7.78;;;3.25;;
64242;SDS011;50573;51.512;5.386;2022-09-06T09:45:44;4.30;;;3.03;;
64242;SDS011;50573;51.512;5.386;2022-09-06T09:55:49;5.15;;;2.97;;
64242;SDS011;50573;51.512;5.386;2022-09-06T10:05:57;6.82;;;3.25;;
64242;SDS011;50573;51.512;5.386;2022-09-06T10:16:05;8.65;;;3.90;;
64242;SDS011;50573;51.512;5.386;2022-09-06T10:26:10;5.35;;;3.30;;
64242;SDS011;50573;51.512;5.386;2022-09-06T10:36:24;8.57;;;3.90;;
64242;SDS011;50573;51.512;5.386;2022-09-06T10:46:32;5.45;;;3.95;;
64242;SDS011;50573;51.512;5.386;2022-09-06T10:56:40;11.02;;;4.55;;
64242;SDS011;50573;51.512;5.386;2022-09-06T11:06:47;11.52;;;4.35;;
64242;SDS011;50573;51.512;5.386;2022-09-06T11:16:59;4.88;;;3.60;;
64242;SDS011;50573;51.512;5.386;2022-09-06T11:27:09;7.88;;;3.38;;
64242;SDS011;50573;51.512;5.386;2022-09-06T11:37:22;10.50;;;4.50;;
64242;SDS011;50573;51.512;5.386;2022-09-06T11:47:35;8.02;;;3.30;;
64242;SDS011;50573;51.512;5.386;2022-09-06T11:57:41;6.03;;;3.42;;
64242;SDS011;50573;51.512;5.386;2022-09-06T12:29:01;5.63;;;3.10;;
64242;SDS011;50573;51.512;5.386;2022-09-06T12:39:13;6.45;;;3.47;;
64242;SDS011;50573;51.512;5.386;2022-09-06T12:49:17;8.27;;;3.08;;
64242;SDS011;50573;51.512;5.386;2022-09-06T12:59:24;6.55;;;3.67;;
64242;SDS011;50573;51.512;5.386;2022-09-06T13:09:27;6.85;;;3.80;;
64242;SDS011;50573;51.512;5.386;2022-09-06T13:19:34;10.60;;;5.18;;
64242;SDS011;50573;51.512;5.386;2022-09-06T13:29:38;7.38;;;3.80;;
64242;SDS011;50573;51.512;5.386;2022-09-06T13:39:57;10.95;;;4.03;;
64242;SDS011;50573;51.512;5.386;2022-09-06T13:50:06;11.15;;;4.68;;
64242;SDS011;50573;51.512;5.386;2022-09-06T14:00:11;4.63;;;3.08;;
64242;SDS011;50573;51.512;5.386;2022-09-06T14:10:17;4.75;;;3.00;;
64242;SDS011;50573;51.512;5.386;2022-09-06T14:20:27;7.70;;;3.15;;
64242;SDS011;50573;51.512;5.386;2022-09-06T14:30:30;7.05;;;3.72;;
64242;SDS011;50573;51.512;5.386;2022-09-06T14:40:44;8.52;;;3.53;;
64242;SDS011;50573;51.512;5.386;2022-09-06T14:50:50;5.70;;;2.83;;
64242;SDS011;50573;51.512;5.386;2022-09-06T15:00:55;4.57;;;2.70;;
64242;SDS011;50573;51.512;5.386;2022-09-06T15:11:07;4.40;;;2.92;;
64242;SDS011;50573;51.512;5.386;2022-09-06T15:21:16;4.50;;;2.53;;
64242;SDS011;50573;51.512;5.386;2022-09-06T15:31:22;7.13;;;2.65;;
64242;SDS011;50573;51.512;5.386;2022-09-06T15:41:35;5.13;;;2.53;;
64242;SDS011;50573;51.512;5.386;2022-09-06T15:51:41;6.70;;;2.80;;
64242;SDS011;50573;51.512;5.386;2022-09-06T16:01:46;5.40;;;3.10;;
64242;SDS011;50573;51.512;5.386;2022-09-06T16:11:54;5.47;;;3.15;;
64242;SDS011;50573;51.512;5.386;2022-09-06T16:22:00;6.72;;;2.88;;
64242;SDS011;50573;51.512;5.386;2022-09-06T16:32:15;8.00;;;3.38;;
64242;SDS011;50573;51.512;5.386;2022-09-06T16:42:20;4.77;;;3.73;;
64242;SDS011;50573;51.512;5.386;2022-09-06T16:52:32;11.18;;;4.15;;
64242;SDS011;50573;51.512;5.386;2022-09-06T17:02:40;3.40;;;3.10;;
64242;SDS011;50573;51.512;5.386;2022-09-06T17:12:47;6.90;;;3.70;;
64242;SDS011;50573;51.512;5.386;2022-09-06T17:33:01;6.80;;;3.40;;
64242;SDS011;50573;51.512;5.386;2022-09-06T17:43:15;6.18;;;3.35;;
64242;SDS011;50573;51.512;5.386;2022-09-06T17:53:18;7.95;;;3.42;;
64242;SDS011;50573;51.512;5.386;2022-09-06T18:13:26;9.50;;;4.93;;
64242;SDS011;50573;51.512;5.386;2022-09-06T18:23:31;9.77;;;4.68;;
64242;SDS011;50573;51.512;5.386;2022-09-06T18:33:35;10.32;;;4.70;;
64242;SDS011;50573;51.512;5.386;2022-09-06T18:43:40;9.85;;;4.72;;
64242;SDS011;50573;51.512;5.386;2022-09-06T18:53:44;8.38;;;5.10;;
64242;SDS011;50573;51.512;5.386;2022-09-06T19:03:49;14.90;;;7.32;;
64242;SDS011;50573;51.512;5.386;2022-09-06T19:13:53;16.80;;;7.30;;
64242;SDS011;50573;51.512;5.386;2022-09-06T19:24:00;12.98;;;7.50;;
64242;SDS011;50573;51.512;5.386;2022-09-06T19:34:04;14.85;;;7.70;;
64242;SDS011;50573;51.512;5.386;2022-09-06T19:54:13;12.63;;;7.95;;
64242;SDS011;50573;51.512;5.386;2022-09-06T20:04:19;16.38;;;6.78;;
64242;SDS011;50573;51.512;5.386;2022-09-06T20:14:22;16.88;;;7.72;;
64242;SDS011;50573;51.512;5.386;2022-09-06T20:24:28;17.40;;;7.47;;
64242;SDS011;50573;51.512;5.386;2022-09-06T20:34:31;40.90;;;9.20;;
64242;SDS011;50573;51.512;5.386;2022-09-06T20:44:35;16.80;;;6.87;;
64242;SDS011;50573;51.512;5.386;2022-09-06T20:54:38;16.45;;;7.80;;
64242;SDS011;50573;51.512;5.386;2022-09-06T21:04:43;10.20;;;6.53;;
64242;SDS011;50573;51.512;5.386;2022-09-06T21:14:46;13.95;;;8.65;;
64242;SDS011;50573;51.512;5.386;2022-09-06T21:24:51;25.83;;;10.00;;
64242;SDS011;50573;51.512;5.386;2022-09-06T21:34:54;19.48;;;9.63;;
64242;SDS011;50573;51.512;5.386;2022-09-06T21:44:58;15.03;;;10.00;;
64242;SDS011;50573;51.512;5.386;2022-09-06T21:55:01;13.98;;;9.07;;
64242;SDS011;50573;51.512;5.386;2022-09-06T22:05:06;30.13;;;11.87;;
64242;SDS011;50573;51.512;5.386;2022-09-06T22:15:10;29.17;;;17.92;;
64242;SDS011;50573;51.512;5.386;2022-09-06T22:25:15;30.83;;;17.38;;
64242;SDS011;50573;51.512;5.386;2022-09-06T22:35:18;30.65;;;23.23;;
64242;SDS011;50573;51.512;5.386;2022-09-06T22:45:23;25.60;;;21.17;;
64242;SDS011;50573;51.512;5.386;2022-09-06T22:55:27;22.67;;;20.15;;
64242;SDS011;50573;51.512;5.386;2022-09-06T23:05:31;21.65;;;12.82;;
64242;SDS011;50573;51.512;5.386;2022-09-06T23:15:35;17.75;;;12.55;;
64242;SDS011;50573;51.512;5.386;2022-09-06T23:25:42;20.42;;;14.80;;
64242;SDS011;50573;51.512;5.386;2022-09-06T23:35:45;18.98;;;14.05;;
64242;SDS011;50573;51.512;5.386;2022-09-06T23:45:50;15.43;;;10.25;;
64242;SDS011;50573;51.512;5.386;2022-09-06T23:55:53;21.45;;;9.30;;
